sensor_id;sensor_type;location;lat;lon;timestamp;P1;durP1;ratioP1;P2;durP2;ratioP2
20417;SDS011;10368;51.436;6.774;2023-10-09T00:00:57;33.88;;;19.67;;
20417;SDS011;10368;51.436;6.774;2023-10-09T00:03:30;32.03;;;18.85;;
20417;SDS011;10368;51.436;6.774;2023-10-09T00:05:58;31.75;;;18.98;;
20417;SDS011;10368;51.436;6.774;2023-10-09T00:08:25;33.47;;;19.67;;
20417;SDS011;10368;51.436;6.774;2023-10-09T00:10:59;36.90;;;19.95;;
20417;SDS011;10368;51.436;6.774;2023-10-09T00:13:44;34.70;;;18.45;;
20417;SDS011;10368;51.436;6.774;2023-10-09T00:16:24;34.03;;;20.10;;
20417;SDS011;10368;51.436;6.774;2023-10-09T00:19:03;38.00;;;19.67;;
20417;SDS011;10368;51.436;6.774;2023-10-09T00:21:47;31.23;;;17.38;;
20417;SDS011;10368;51.436;6.774;2023-10-09T00:24:15;24.58;;;17.02;;
20417;SDS011;10368;51.436;6.774;2023-10-09T00:26:51;30.45;;;18.60;;
20417;SDS011;10368;51.436;6.774;2023-10-09T00:29:22;26.33;;;17.17;;
20417;SDS011;10368;51.436;6.774;2023-10-09T00:31:49;26.60;;;17.95;;
20417;SDS011;10368;51.436;6.774;2023-10-09T00:34:21;34.20;;;18.10;;
20417;SDS011;10368;51.436;6.774;2023-10-09T00:36:48;30.55;;;16.00;;
20417;SDS011;10368;51.436;6.774;2023-10-09T00:39:18;27.17;;;16.65;;
20417;SDS011;10368;51.436;6.774;2023-10-09T00:42:07;29.45;;;17.60;;
20417;SDS011;10368;51.436;6.774;2023-10-09T00:44:38;28.50;;;17.13;;
20417;SDS011;10368;51.436;6.774;2023-10-09T00:47:06;29.65;;;17.00;;
20417;SDS011;10368;51.436;6.774;2023-10-09T00:50:08;34.33;;;17.67;;
20417;SDS011;10368;51.436;6.774;2023-10-09T00:52:39;32.55;;;15.95;;
20417;SDS011;10368;51.436;6.774;2023-10-09T00:55:10;20.90;;;15.65;;
20417;SDS011;10368;51.436;6.774;2023-10-09T00:57:48;24.17;;;15.65;;
20417;SDS011;10368;51.436;6.774;2023-10-09T01:00:19;30.60;;;15.13;;
20417;SDS011;10368;51.436;6.774;2023-10-09T01:03:00;21.80;;;14.73;;
20417;SDS011;10368;51.436;6.774;2023-10-09T01:05:48;23.23;;;15.20;;
20417;SDS011;10368;51.436;6.774;2023-10-09T01:08:24;24.90;;;14.13;;
20417;SDS011;10368;51.436;6.774;2023-10-09T01:10:59;23.13;;;14.85;;
20417;SDS011;10368;51.436;6.774;2023-10-09T01:13:36;22.35;;;16.05;;
20417;SDS011;10368;51.436;6.774;2023-10-09T01:16:17;30.73;;;15.25;;
20417;SDS011;10368;51.436;6.774;2023-10-09T01:18:46;23.23;;;14.15;;
20417;SDS011;10368;51.436;6.774;2023-10-09T01:21:19;21.05;;;13.88;;
20417;SDS011;10368;51.436;6.774;2023-10-09T01:23:53;17.88;;;14.40;;
20417;SDS011;10368;51.436;6.774;2023-10-09T01:26:31;30.95;;;14.30;;
20417;SDS011;10368;51.436;6.774;2023-10-09T01:29:06;24.60;;;15.25;;
20417;SDS011;10368;51.436;6.774;2023-10-09T01:31:41;24.80;;;14.30;;
20417;SDS011;10368;51.436;6.774;2023-10-09T01:34:37;20.52;;;13.68;;
20417;SDS011;10368;51.436;6.774;2023-10-09T01:37:07;19.60;;;14.18;;
20417;SDS011;10368;51.436;6.774;2023-10-09T01:39:41;26.65;;;13.45;;
20417;SDS011;10368;51.436;6.774;2023-10-09T01:42:09;23.85;;;14.07;;
20417;SDS011;10368;51.436;6.774;2023-10-09T01:44:37;19.75;;;11.68;;
20417;SDS011;10368;51.436;6.774;2023-10-09T01:47:10;20.38;;;13.35;;
20417;SDS011;10368;51.436;6.774;2023-10-09T01:49:42;23.58;;;13.35;;
20417;SDS011;10368;51.436;6.774;2023-10-09T01:52:10;18.10;;;11.85;;
20417;SDS011;10368;51.436;6.774;2023-10-09T01:54:42;17.70;;;12.73;;
20417;SDS011;10368;51.436;6.774;2023-10-09T01:57:15;22.85;;;14.35;;
20417;SDS011;10368;51.436;6.774;2023-10-09T01:59:49;20.33;;;13.05;;
20417;SDS011;10368;51.436;6.774;2023-10-09T02:02:16;19.13;;;12.93;;
20417;SDS011;10368;51.436;6.774;2023-10-09T02:04:53;15.63;;;12.40;;
20417;SDS011;10368;51.436;6.774;2023-10-09T02:07:36;18.17;;;13.85;;
20417;SDS011;10368;51.436;6.774;2023-10-09T02:10:10;24.33;;;13.82;;
20417;SDS011;10368;51.436;6.774;2023-10-09T02:12:52;17.55;;;12.38;;
20417;SDS011;10368;51.436;6.774;2023-10-09T02:15:20;14.50;;;12.30;;
20417;SDS011;10368;51.436;6.774;2023-10-09T02:18:06;22.23;;;13.20;;
20417;SDS011;10368;51.436;6.774;2023-10-09T02:21:07;17.17;;;11.45;;
20417;SDS011;10368;51.436;6.774;2023-10-09T02:23:34;18.25;;;12.27;;
20417;SDS011;10368;51.436;6.774;2023-10-09T02:26:11;18.05;;;12.80;;
20417;SDS011;10368;51.436;6.774;2023-10-09T02:28:51;20.73;;;13.32;;
20417;SDS011;10368;51.436;6.774;2023-10-09T02:31:26;18.67;;;11.32;;
20417;SDS011;10368;51.436;6.774;2023-10-09T02:34:07;21.00;;;13.18;;
20417;SDS011;10368;51.436;6.774;2023-10-09T02:36:37;17.80;;;12.18;;
20417;SDS011;10368;51.436;6.774;2023-10-09T02:39:15;17.27;;;12.25;;
20417;SDS011;10368;51.436;6.774;2023-10-09T02:41:53;15.48;;;12.25;;
20417;SDS011;10368;51.436;6.774;2023-10-09T02:44:28;14.95;;;10.93;;
20417;SDS011;10368;51.436;6.774;2023-10-09T02:46:58;12.35;;;10.48;;
20417;SDS011;10368;51.436;6.774;2023-10-09T02:49:26;19.67;;;10.65;;
20417;SDS011;10368;51.436;6.774;2023-10-09T02:51:53;18.38;;;11.68;;
20417;SDS011;10368;51.436;6.774;2023-10-09T02:54:20;16.10;;;10.60;;
20417;SDS011;10368;51.436;6.774;2023-10-09T02:57:01;18.77;;;12.85;;
20417;SDS011;10368;51.436;6.774;2023-10-09T02:59:34;13.77;;;11.70;;
20417;SDS011;10368;51.436;6.774;2023-10-09T03:02:05;14.82;;;10.52;;
20417;SDS011;10368;51.436;6.774;2023-10-09T03:04:32;15.15;;;11.60;;
20417;SDS011;10368;51.436;6.774;2023-10-09T03:07:00;19.60;;;11.23;;
20417;SDS011;10368;51.436;6.774;2023-10-09T03:09:27;16.25;;;10.80;;
20417;SDS011;10368;51.436;6.774;2023-10-09T03:11:58;17.67;;;11.70;;
20417;SDS011;10368;51.436;6.774;2023-10-09T03:14:34;18.08;;;12.02;;
20417;SDS011;10368;51.436;6.774;2023-10-09T03:17:04;16.30;;;11.13;;
20417;SDS011;10368;51.436;6.774;2023-10-09T03:19:38;14.10;;;11.95;;
20417;SDS011;10368;51.436;6.774;2023-10-09T03:22:06;17.25;;;11.43;;
20417;SDS011;10368;51.436;6.774;2023-10-09T03:24:38;14.68;;;10.30;;
20417;SDS011;10368;51.436;6.774;2023-10-09T03:27:16;14.93;;;11.32;;
20417;SDS011;10368;51.436;6.774;2023-10-09T03:29:43;19.42;;;11.55;;
20417;SDS011;10368;51.436;6.774;2023-10-09T03:32:16;14.05;;;11.15;;
20417;SDS011;10368;51.436;6.774;2023-10-09T03:34:43;19.52;;;11.88;;
20417;SDS011;10368;51.436;6.774;2023-10-09T03:37:10;18.30;;;11.88;;
20417;SDS011;10368;51.436;6.774;2023-10-09T03:39:47;19.55;;;10.57;;
20417;SDS011;10368;51.436;6.774;2023-10-09T03:42:17;16.65;;;10.35;;
20417;SDS011;10368;51.436;6.774;2023-10-09T03:44:49;17.58;;;11.75;;
20417;SDS011;10368;51.436;6.774;2023-10-09T03:47:20;14.13;;;10.60;;
20417;SDS011;10368;51.436;6.774;2023-10-09T03:49:51;14.32;;;10.73;;
20417;SDS011;10368;51.436;6.774;2023-10-09T03:52:21;20.67;;;11.30;;
20417;SDS011;10368;51.436;6.774;2023-10-09T03:54:52;16.73;;;10.50;;
20417;SDS011;10368;51.436;6.774;2023-10-09T03:57:19;19.67;;;11.57;;
20417;SDS011;10368;51.436;6.774;2023-10-09T03:59:47;15.93;;;10.52;;
20417;SDS011;10368;51.436;6.774;2023-10-09T04:02:14;14.82;;;9.55;;
20417;SDS011;10368;51.436;6.774;2023-10-09T04:04:42;15.95;;;9.70;;
20417;SDS011;10368;51.436;6.774;2023-10-09T04:07:14;15.90;;;10.68;;
20417;SDS011;10368;51.436;6.774;2023-10-09T04:09:44;13.20;;;10.95;;
20417;SDS011;10368;51.436;6.774;2023-10-09T04:12:14;14.02;;;9.73;;
20417;SDS011;10368;51.436;6.774;2023-10-09T04:14:48;14.88;;;9.82;;
20417;SDS011;10368;51.436;6.774;2023-10-09T04:17:21;15.02;;;11.65;;
20417;SDS011;10368;51.436;6.774;2023-10-09T04:20:02;14.90;;;10.60;;
20417;SDS011;10368;51.436;6.774;2023-10-09T04:22:46;13.15;;;9.82;;
20417;SDS011;10368;51.436;6.774;2023-10-09T04:27:56;16.15;;;10.90;;
20417;SDS011;10368;51.436;6.774;2023-10-09T04:30:37;14.23;;;9.52;;
20417;SDS011;10368;51.436;6.774;2023-10-09T04:33:13;13.02;;;9.70;;
20417;SDS011;10368;51.436;6.774;2023-10-09T04:36:07;11.52;;;10.05;;
20417;SDS011;10368;51.436;6.774;2023-10-09T04:38:48;14.43;;;9.45;;
20417;SDS011;10368;51.436;6.774;2023-10-09T04:41:33;13.25;;;9.73;;
20417;SDS011;10368;51.436;6.774;2023-10-09T04:44:09;13.32;;;8.95;;
20417;SDS011;10368;51.436;6.774;2023-10-09T04:47:02;16.15;;;10.45;;
20417;SDS011;10368;51.436;6.774;2023-10-09T04:49:39;16.13;;;10.40;;
20417;SDS011;10368;51.436;6.774;2023-10-09T04:52:32;13.25;;;9.68;;
20417;SDS011;10368;51.436;6.774;2023-10-09T04:54:59;15.75;;;11.93;;
20417;SDS011;10368;51.436;6.774;2023-10-09T05:00:06;13.82;;;10.60;;
20417;SDS011;10368;51.436;6.774;2023-10-09T05:02:54;13.82;;;10.02;;
20417;SDS011;10368;51.436;6.774;2023-10-09T05:05:29;15.20;;;11.75;;
20417;SDS011;10368;51.436;6.774;2023-10-09T05:08:12;24.30;;;20.92;;
20417;SDS011;10368;51.436;6.774;2023-10-09T05:16:12;14.57;;;11.23;;
20417;SDS011;10368;51.436;6.774;2023-10-09T05:18:46;18.35;;;11.40;;
20417;SDS011;10368;51.436;6.774;2023-10-09T05:21:28;17.95;;;11.52;;
20417;SDS011;10368;51.436;6.774;2023-10-09T05:23:58;14.95;;;11.80;;
20417;SDS011;10368;51.436;6.774;2023-10-09T05:26:46;13.95;;;10.85;;
20417;SDS011;10368;51.436;6.774;2023-10-09T05:29:15;15.73;;;11.15;;
20417;SDS011;10368;51.436;6.774;2023-10-09T05:31:59;20.35;;;10.25;;
20417;SDS011;10368;51.436;6.774;2023-10-09T05:34:45;14.50;;;10.57;;
20417;SDS011;10368;51.436;6.774;2023-10-09T05:37:25;11.35;;;9.30;;
20417;SDS011;10368;51.436;6.774;2023-10-09T05:40:02;17.90;;;10.93;;
20417;SDS011;10368;51.436;6.774;2023-10-09T05:42:43;20.65;;;10.98;;
20417;SDS011;10368;51.436;6.774;2023-10-09T05:45:11;15.13;;;10.55;;
20417;SDS011;10368;51.436;6.774;2023-10-09T05:47:58;12.02;;;9.45;;
20417;SDS011;10368;51.436;6.774;2023-10-09T05:50:26;13.02;;;9.38;;
20417;SDS011;10368;51.436;6.774;2023-10-09T05:52:57;14.23;;;9.63;;
20417;SDS011;10368;51.436;6.774;2023-10-09T05:55:32;13.07;;;9.80;;
20417;SDS011;10368;51.436;6.774;2023-10-09T05:58:18;26.88;;;10.27;;
20417;SDS011;10368;51.436;6.774;2023-10-09T06:01:03;16.67;;;10.57;;
20417;SDS011;10368;51.436;6.774;2023-10-09T06:03:49;12.75;;;10.18;;
20417;SDS011;10368;51.436;6.774;2023-10-09T06:06:21;13.23;;;9.77;;
20417;SDS011;10368;51.436;6.774;2023-10-09T06:09:01;17.35;;;10.32;;
20417;SDS011;10368;51.436;6.774;2023-10-09T06:11:42;14.15;;;9.43;;
20417;SDS011;10368;51.436;6.774;2023-10-09T06:14:16;41.70;;;30.50;;
20417;SDS011;10368;51.436;6.774;2023-10-09T06:16:53;41.05;;;30.40;;
20417;SDS011;10368;51.436;6.774;2023-10-09T06:19:20;17.85;;;10.70;;
20417;SDS011;10368;51.436;6.774;2023-10-09T06:21:49;17.15;;;11.02;;
20417;SDS011;10368;51.436;6.774;2023-10-09T06:24:19;17.98;;;10.80;;
20417;SDS011;10368;51.436;6.774;2023-10-09T06:26:49;26.38;;;11.82;;
20417;SDS011;10368;51.436;6.774;2023-10-09T06:29:26;17.00;;;10.38;;
20417;SDS011;10368;51.436;6.774;2023-10-09T06:32:12;14.00;;;10.90;;
20417;SDS011;10368;51.436;6.774;2023-10-09T06:34:49;14.23;;;10.07;;
20417;SDS011;10368;51.436;6.774;2023-10-09T06:37:23;14.25;;;11.02;;
20417;SDS011;10368;51.436;6.774;2023-10-09T06:39:51;17.50;;;10.32;;
20417;SDS011;10368;51.436;6.774;2023-10-09T06:42:24;14.00;;;9.90;;
20417;SDS011;10368;51.436;6.774;2023-10-09T06:45:21;19.27;;;10.70;;
20417;SDS011;10368;51.436;6.774;2023-10-09T06:47:54;15.95;;;11.32;;
20417;SDS011;10368;51.436;6.774;2023-10-09T06:50:36;17.40;;;11.10;;
20417;SDS011;10368;51.436;6.774;2023-10-09T06:53:21;18.98;;;12.23;;
20417;SDS011;10368;51.436;6.774;2023-10-09T06:55:54;11.85;;;10.23;;
20417;SDS011;10368;51.436;6.774;2023-10-09T06:58:42;21.30;;;12.57;;
20417;SDS011;10368;51.436;6.774;2023-10-09T07:01:13;19.48;;;11.65;;
20417;SDS011;10368;51.436;6.774;2023-10-09T07:03:51;15.32;;;11.68;;
20417;SDS011;10368;51.436;6.774;2023-10-09T07:06:19;13.45;;;10.73;;
20417;SDS011;10368;51.436;6.774;2023-10-09T07:08:55;15.18;;;11.20;;
20417;SDS011;10368;51.436;6.774;2023-10-09T07:11:47;14.27;;;11.52;;
20417;SDS011;10368;51.436;6.774;2023-10-09T07:14:19;11.73;;;9.60;;
20417;SDS011;10368;51.436;6.774;2023-10-09T07:17:02;18.25;;;11.18;;
20417;SDS011;10368;51.436;6.774;2023-10-09T07:19:42;18.05;;;11.73;;
20417;SDS011;10368;51.436;6.774;2023-10-09T07:22:10;15.85;;;11.85;;
20417;SDS011;10368;51.436;6.774;2023-10-09T07:24:48;16.05;;;10.90;;
20417;SDS011;10368;51.436;6.774;2023-10-09T07:27:20;14.85;;;10.50;;
20417;SDS011;10368;51.436;6.774;2023-10-09T07:30:07;17.63;;;11.27;;
20417;SDS011;10368;51.436;6.774;2023-10-09T07:33:03;16.15;;;11.13;;
20417;SDS011;10368;51.436;6.774;2023-10-09T07:35:39;16.98;;;11.02;;
20417;SDS011;10368;51.436;6.774;2023-10-09T07:38:17;17.25;;;10.43;;
20417;SDS011;10368;51.436;6.774;2023-10-09T07:40:50;17.92;;;12.02;;
20417;SDS011;10368;51.436;6.774;2023-10-09T07:43:36;17.10;;;11.25;;
20417;SDS011;10368;51.436;6.774;2023-10-09T07:46:12;22.30;;;14.13;;
20417;SDS011;10368;51.436;6.774;2023-10-09T07:49:03;14.65;;;11.38;;
20417;SDS011;10368;51.436;6.774;2023-10-09T07:51:39;18.80;;;11.88;;
20417;SDS011;10368;51.436;6.774;2023-10-09T07:54:13;22.92;;;12.77;;
20417;SDS011;10368;51.436;6.774;2023-10-09T07:56:59;14.70;;;12.13;;
20417;SDS011;10368;51.436;6.774;2023-10-09T07:59:44;18.77;;;12.77;;
20417;SDS011;10368;51.436;6.774;2023-10-09T08:02:38;19.10;;;12.07;;
20417;SDS011;10368;51.436;6.774;2023-10-09T08:05:06;20.02;;;12.70;;
20417;SDS011;10368;51.436;6.774;2023-10-09T08:07:46;17.63;;;12.10;;
20417;SDS011;10368;51.436;6.774;2023-10-09T08:10:44;20.63;;;11.43;;
20417;SDS011;10368;51.436;6.774;2023-10-09T08:13:30;14.32;;;11.75;;
20417;SDS011;10368;51.436;6.774;2023-10-09T08:16:15;16.92;;;12.05;;
20417;SDS011;10368;51.436;6.774;2023-10-09T08:18:53;25.50;;;12.07;;
20417;SDS011;10368;51.436;6.774;2023-10-09T08:21:23;19.73;;;12.05;;
20417;SDS011;10368;51.436;6.774;2023-10-09T08:24:09;15.00;;;11.88;;
20417;SDS011;10368;51.436;6.774;2023-10-09T08:26:56;21.27;;;12.27;;
20417;SDS011;10368;51.436;6.774;2023-10-09T08:29:43;20.60;;;12.65;;
20417;SDS011;10368;51.436;6.774;2023-10-09T08:32:13;17.55;;;11.30;;
20417;SDS011;10368;51.436;6.774;2023-10-09T08:35:07;21.13;;;11.20;;
20417;SDS011;10368;51.436;6.774;2023-10-09T08:37:54;15.25;;;11.57;;
20417;SDS011;10368;51.436;6.774;2023-10-09T08:40:31;14.48;;;11.20;;
20417;SDS011;10368;51.436;6.774;2023-10-09T08:43:09;18.58;;;12.63;;
20417;SDS011;10368;51.436;6.774;2023-10-09T08:45:41;15.98;;;11.68;;
20417;SDS011;10368;51.436;6.774;2023-10-09T08:48:13;15.20;;;12.43;;
20417;SDS011;10368;51.436;6.774;2023-10-09T08:50:53;18.13;;;12.15;;
20417;SDS011;10368;51.436;6.774;2023-10-09T08:53:22;17.23;;;13.00;;
20417;SDS011;10368;51.436;6.774;2023-10-09T08:55:50;18.15;;;11.98;;
20417;SDS011;10368;51.436;6.774;2023-10-09T08:58:23;22.55;;;13.68;;
20417;SDS011;10368;51.436;6.774;2023-10-09T09:01:03;15.80;;;12.27;;
20417;SDS011;10368;51.436;6.774;2023-10-09T09:03:40;17.40;;;12.45;;
20417;SDS011;10368;51.436;6.774;2023-10-09T09:06:11;22.27;;;14.02;;
20417;SDS011;10368;51.436;6.774;2023-10-09T09:08:42;20.73;;;12.90;;
20417;SDS011;10368;51.436;6.774;2023-10-09T09:11:17;17.77;;;12.25;;
20417;SDS011;10368;51.436;6.774;2023-10-09T09:16:33;14.77;;;12.55;;
20417;SDS011;10368;51.436;6.774;2023-10-09T09:19:06;16.55;;;13.05;;
20417;SDS011;10368;51.436;6.774;2023-10-09T09:21:38;22.67;;;12.82;;
20417;SDS011;10368;51.436;6.774;2023-10-09T09:24:07;18.52;;;13.77;;
20417;SDS011;10368;51.436;6.774;2023-10-09T09:27:00;19.98;;;12.73;;
20417;SDS011;10368;51.436;6.774;2023-10-09T09:30:01;16.67;;;12.25;;
20417;SDS011;10368;51.436;6.774;2023-10-09T09:32:49;15.48;;;12.13;;
20417;SDS011;10368;51.436;6.774;2023-10-09T09:35:36;15.75;;;11.35;;
20417;SDS011;10368;51.436;6.774;2023-10-09T09:38:03;19.42;;;12.32;;
20417;SDS011;10368;51.436;6.774;2023-10-09T09:40:32;15.13;;;12.05;;
20417;SDS011;10368;51.436;6.774;2023-10-09T09:43:07;21.08;;;11.82;;
20417;SDS011;10368;51.436;6.774;2023-10-09T09:45:43;14.75;;;10.95;;
20417;SDS011;10368;51.436;6.774;2023-10-09T09:48:15;13.57;;;10.57;;
20417;SDS011;10368;51.436;6.774;2023-10-09T09:50:43;16.02;;;10.50;;
20417;SDS011;10368;51.436;6.774;2023-10-09T09:53:13;18.40;;;10.93;;
20417;SDS011;10368;51.436;6.774;2023-10-09T09:55:50;13.77;;;10.27;;
20417;SDS011;10368;51.436;6.774;2023-10-09T09:58:25;19.63;;;10.27;;
20417;SDS011;10368;51.436;6.774;2023-10-09T10:01:03;13.13;;;10.35;;
20417;SDS011;10368;51.436;6.774;2023-10-09T10:03:48;11.50;;;10.27;;
20417;SDS011;10368;51.436;6.774;2023-10-09T10:06:40;15.50;;;11.10;;
20417;SDS011;10368;51.436;6.774;2023-10-09T10:09:33;28.08;;;10.40;;
20417;SDS011;10368;51.436;6.774;2023-10-09T10:12:08;13.27;;;9.95;;
20417;SDS011;10368;51.436;6.774;2023-10-09T10:17:23;16.45;;;10.35;;
20417;SDS011;10368;51.436;6.774;2023-10-09T10:22:26;14.32;;;11.18;;
20417;SDS011;10368;51.436;6.774;2023-10-09T10:24:54;14.68;;;9.68;;
20417;SDS011;10368;51.436;6.774;2023-10-09T10:27:32;13.68;;;10.40;;
20417;SDS011;10368;51.436;6.774;2023-10-09T10:35:21;14.85;;;10.85;;
20417;SDS011;10368;51.436;6.774;2023-10-09T10:38:26;17.05;;;10.57;;
20417;SDS011;10368;51.436;6.774;2023-10-09T10:41:08;15.80;;;11.20;;
20417;SDS011;10368;51.436;6.774;2023-10-09T10:43:40;17.23;;;12.02;;
20417;SDS011;10368;51.436;6.774;2023-10-09T10:46:17;18.05;;;12.15;;
20417;SDS011;10368;51.436;6.774;2023-10-09T10:49:05;13.82;;;11.70;;
20417;SDS011;10368;51.436;6.774;2023-10-09T10:52:03;15.13;;;11.20;;
20417;SDS011;10368;51.436;6.774;2023-10-09T10:54:46;17.15;;;11.13;;
20417;SDS011;10368;51.436;6.774;2023-10-09T10:57:14;16.65;;;11.57;;
20417;SDS011;10368;51.436;6.774;2023-10-09T10:59:56;16.67;;;11.18;;
20417;SDS011;10368;51.436;6.774;2023-10-09T11:02:39;13.10;;;10.98;;
20417;SDS011;10368;51.436;6.774;2023-10-09T11:05:09;15.75;;;11.75;;
20417;SDS011;10368;51.436;6.774;2023-10-09T11:07:56;16.25;;;10.77;;
20417;SDS011;10368;51.436;6.774;2023-10-09T11:10:24;15.13;;;11.15;;
20417;SDS011;10368;51.436;6.774;2023-10-09T11:12:55;14.77;;;10.98;;
20417;SDS011;10368;51.436;6.774;2023-10-09T11:15:35;13.23;;;10.82;;
20417;SDS011;10368;51.436;6.774;2023-10-09T11:18:15;13.05;;;10.88;;
20417;SDS011;10368;51.436;6.774;2023-10-09T11:20:55;12.05;;;9.88;;
20417;SDS011;10368;51.436;6.774;2023-10-09T11:23:23;17.52;;;11.65;;
20417;SDS011;10368;51.436;6.774;2023-10-09T11:26:00;16.42;;;11.02;;
20417;SDS011;10368;51.436;6.774;2023-10-09T11:31:58;12.77;;;11.10;;
20417;SDS011;10368;51.436;6.774;2023-10-09T11:34:27;14.27;;;10.80;;
20417;SDS011;10368;51.436;6.774;2023-10-09T11:39:38;17.10;;;11.65;;
20417;SDS011;10368;51.436;6.774;2023-10-09T11:42:24;12.07;;;10.85;;
20417;SDS011;10368;51.436;6.774;2023-10-09T11:45:20;13.80;;;11.32;;
20417;SDS011;10368;51.436;6.774;2023-10-09T11:47:52;15.40;;;11.48;;
20417;SDS011;10368;51.436;6.774;2023-10-09T11:50:45;15.85;;;11.43;;
20417;SDS011;10368;51.436;6.774;2023-10-09T11:53:15;20.05;;;11.55;;
20417;SDS011;10368;51.436;6.774;2023-10-09T11:56:00;19.60;;;11.73;;
20417;SDS011;10368;51.436;6.774;2023-10-09T11:58:28;23.95;;;12.07;;
20417;SDS011;10368;51.436;6.774;2023-10-09T12:00:55;15.48;;;11.43;;
20417;SDS011;10368;51.436;6.774;2023-10-09T12:03:42;16.25;;;11.80;;
20417;SDS011;10368;51.436;6.774;2023-10-09T12:06:16;14.15;;;12.02;;
20417;SDS011;10368;51.436;6.774;2023-10-09T12:08:45;19.83;;;11.73;;
20417;SDS011;10368;51.436;6.774;2023-10-09T12:11:16;19.05;;;12.48;;
20417;SDS011;10368;51.436;6.774;2023-10-09T12:13:55;15.57;;;11.77;;
20417;SDS011;10368;51.436;6.774;2023-10-09T12:16:24;15.20;;;12.23;;
20417;SDS011;10368;51.436;6.774;2023-10-09T12:18:55;19.25;;;12.60;;
20417;SDS011;10368;51.436;6.774;2023-10-09T12:21:22;23.80;;;12.82;;
20417;SDS011;10368;51.436;6.774;2023-10-09T12:23:50;16.98;;;12.80;;
20417;SDS011;10368;51.436;6.774;2023-10-09T12:26:17;21.73;;;14.02;;
20417;SDS011;10368;51.436;6.774;2023-10-09T12:28:44;15.68;;;12.80;;
20417;SDS011;10368;51.436;6.774;2023-10-09T12:31:16;19.30;;;12.63;;
20417;SDS011;10368;51.436;6.774;2023-10-09T12:33:47;14.80;;;12.05;;
20417;SDS011;10368;51.436;6.774;2023-10-09T12:36:16;12.55;;;11.25;;
20417;SDS011;10368;51.436;6.774;2023-10-09T12:38:47;16.85;;;12.88;;
20417;SDS011;10368;51.436;6.774;2023-10-09T12:41:20;15.73;;;13.15;;
20417;SDS011;10368;51.436;6.774;2023-10-09T12:43:54;15.38;;;12.77;;
20417;SDS011;10368;51.436;6.774;2023-10-09T12:46:28;22.45;;;13.27;;
20417;SDS011;10368;51.436;6.774;2023-10-09T12:48:59;17.67;;;12.90;;
20417;SDS011;10368;51.436;6.774;2023-10-09T12:51:28;16.95;;;12.77;;
20417;SDS011;10368;51.436;6.774;2023-10-09T12:53:58;21.85;;;13.25;;
20417;SDS011;10368;51.436;6.774;2023-10-09T12:56:28;14.25;;;12.23;;
20417;SDS011;10368;51.436;6.774;2023-10-09T12:59:04;15.93;;;13.15;;
20417;SDS011;10368;51.436;6.774;2023-10-09T13:01:31;15.43;;;13.02;;
20417;SDS011;10368;51.436;6.774;2023-10-09T13:03:59;20.40;;;13.00;;
20417;SDS011;10368;51.436;6.774;2023-10-09T13:06:26;15.63;;;14.00;;
20417;SDS011;10368;51.436;6.774;2023-10-09T13:08:53;17.15;;;13.27;;
20417;SDS011;10368;51.436;6.774;2023-10-09T13:11:26;15.45;;;13.18;;
20417;SDS011;10368;51.436;6.774;2023-10-09T13:13:53;16.15;;;12.68;;
20417;SDS011;10368;51.436;6.774;2023-10-09T13:16:20;17.63;;;13.88;;
20417;SDS011;10368;51.436;6.774;2023-10-09T13:18:57;16.48;;;12.65;;
20417;SDS011;10368;51.436;6.774;2023-10-09T13:21:26;18.50;;;13.60;;
20417;SDS011;10368;51.436;6.774;2023-10-09T13:23:58;18.73;;;14.00;;
20417;SDS011;10368;51.436;6.774;2023-10-09T13:26:27;19.05;;;14.65;;
20417;SDS011;10368;51.436;6.774;2023-10-09T13:29:00;15.70;;;13.80;;
20417;SDS011;10368;51.436;6.774;2023-10-09T13:31:29;17.75;;;13.80;;
20417;SDS011;10368;51.436;6.774;2023-10-09T13:34:01;18.05;;;14.27;;
20417;SDS011;10368;51.436;6.774;2023-10-09T13:36:30;16.98;;;12.43;;
20417;SDS011;10368;51.436;6.774;2023-10-09T13:39:04;18.88;;;13.73;;
20417;SDS011;10368;51.436;6.774;2023-10-09T13:41:55;16.70;;;13.85;;
20417;SDS011;10368;51.436;6.774;2023-10-09T13:44:27;19.33;;;14.85;;
20417;SDS011;10368;51.436;6.774;2023-10-09T13:46:58;18.63;;;13.38;;
20417;SDS011;10368;51.436;6.774;2023-10-09T13:49:26;22.08;;;14.25;;
20417;SDS011;10368;51.436;6.774;2023-10-09T13:51:57;19.52;;;13.57;;
20417;SDS011;10368;51.436;6.774;2023-10-09T13:54:26;22.77;;;14.70;;
20417;SDS011;10368;51.436;6.774;2023-10-09T13:56:59;19.27;;;13.88;;
20417;SDS011;10368;51.436;6.774;2023-10-09T13:59:30;22.02;;;14.98;;
20417;SDS011;10368;51.436;6.774;2023-10-09T14:01:58;18.48;;;14.80;;
20417;SDS011;10368;51.436;6.774;2023-10-09T14:04:26;28.58;;;16.30;;
20417;SDS011;10368;51.436;6.774;2023-10-09T14:06:52;22.17;;;15.07;;
20417;SDS011;10368;51.436;6.774;2023-10-09T14:09:27;18.83;;;15.02;;
20417;SDS011;10368;51.436;6.774;2023-10-09T14:11:57;20.70;;;15.65;;
20417;SDS011;10368;51.436;6.774;2023-10-09T14:14:33;22.35;;;14.30;;
20417;SDS011;10368;51.436;6.774;2023-10-09T14:17:05;19.23;;;15.77;;
20417;SDS011;10368;51.436;6.774;2023-10-09T14:19:42;21.33;;;16.13;;
20417;SDS011;10368;51.436;6.774;2023-10-09T14:22:18;16.75;;;14.95;;
20417;SDS011;10368;51.436;6.774;2023-10-09T14:24:46;19.60;;;14.90;;
20417;SDS011;10368;51.436;6.774;2023-10-09T14:27:15;22.40;;;14.90;;
20417;SDS011;10368;51.436;6.774;2023-10-09T14:29:45;21.42;;;15.07;;
20417;SDS011;10368;51.436;6.774;2023-10-09T14:32:13;20.77;;;15.60;;
20417;SDS011;10368;51.436;6.774;2023-10-09T14:34:41;39.60;;;16.77;;
20417;SDS011;10368;51.436;6.774;2023-10-09T14:37:20;19.85;;;15.10;;
20417;SDS011;10368;51.436;6.774;2023-10-09T14:39:47;20.80;;;13.93;;
20417;SDS011;10368;51.436;6.774;2023-10-09T14:42:15;21.15;;;15.30;;
20417;SDS011;10368;51.436;6.774;2023-10-09T14:44:43;20.58;;;14.43;;
20417;SDS011;10368;51.436;6.774;2023-10-09T14:47:14;22.15;;;15.73;;
20417;SDS011;10368;51.436;6.774;2023-10-09T14:49:41;16.77;;;15.00;;
20417;SDS011;10368;51.436;6.774;2023-10-09T14:52:13;26.02;;;15.75;;
20417;SDS011;10368;51.436;6.774;2023-10-09T14:54:45;21.10;;;15.27;;
20417;SDS011;10368;51.436;6.774;2023-10-09T14:57:13;23.45;;;16.27;;
20417;SDS011;10368;51.436;6.774;2023-10-09T14:59:41;25.35;;;16.80;;
20417;SDS011;10368;51.436;6.774;2023-10-09T15:02:12;18.88;;;16.52;;
20417;SDS011;10368;51.436;6.774;2023-10-09T15:04:39;19.98;;;17.02;;
20417;SDS011;10368;51.436;6.774;2023-10-09T15:07:07;21.40;;;17.02;;
20417;SDS011;10368;51.436;6.774;2023-10-09T15:09:34;24.80;;;17.52;;
20417;SDS011;10368;51.436;6.774;2023-10-09T15:12:03;24.67;;;15.75;;
20417;SDS011;10368;51.436;6.774;2023-10-09T15:14:34;27.92;;;17.15;;
20417;SDS011;10368;51.436;6.774;2023-10-09T15:17:01;27.40;;;18.50;;
20417;SDS011;10368;51.436;6.774;2023-10-09T15:19:29;23.08;;;17.10;;
20417;SDS011;10368;51.436;6.774;2023-10-09T15:21:56;26.08;;;17.40;;
20417;SDS011;10368;51.436;6.774;2023-10-09T15:24:27;27.33;;;17.85;;
20417;SDS011;10368;51.436;6.774;2023-10-09T15:26:54;26.88;;;17.98;;
20417;SDS011;10368;51.436;6.774;2023-10-09T15:29:25;20.65;;;17.13;;
20417;SDS011;10368;51.436;6.774;2023-10-09T15:31:57;31.58;;;17.70;;
20417;SDS011;10368;51.436;6.774;2023-10-09T15:34:32;25.85;;;17.60;;
20417;SDS011;10368;51.436;6.774;2023-10-09T15:37:01;28.92;;;18.05;;
20417;SDS011;10368;51.436;6.774;2023-10-09T15:39:34;26.67;;;18.00;;